createdAt,value
2018-04-10T00:02:17.462Z,61.25
2018-04-10T00:04:44.926Z,61.32
2018-04-10T00:07:12.410Z,61.21
2018-04-10T00:09:39.944Z,61.49
2018-04-10T00:12:07.431Z,61.53
2018-04-10T00:14:35.017Z,61.70
2018-04-10T00:17:02.495Z,61.84
2018-04-10T00:19:30.006Z,61.42
2018-04-10T00:21:57.465Z,61.69
2018-04-10T00:24:24.988Z,62.29
2018-04-10T00:26:52.476Z,62.15
2018-04-10T00:29:19.952Z,62.32
2018-04-10T00:31:47.427Z,62.38
2018-04-10T00:34:14.902Z,62.65
2018-04-10T00:36:42.354Z,62.95
2018-04-10T00:39:10.161Z,63.21
2018-04-10T00:41:37.653Z,63.62
2018-04-10T00:44:05.155Z,63.82
2018-04-10T00:46:32.654Z,63.94
2018-04-10T00:49:00.155Z,64.37
2018-04-10T00:51:27.613Z,64.47
2018-04-10T00:53:55.056Z,63.57
2018-04-10T00:56:22.522Z,63.42
2018-04-10T00:58:50.014Z,63.47
2018-04-10T01:01:17.517Z,63.93
2018-04-10T01:03:44.997Z,64.10
2018-04-10T01:06:12.487Z,64.26
2018-04-10T01:08:40.082Z,64.63
2018-04-10T01:11:07.596Z,64.98
2018-04-10T01:13:35.075Z,65.37
2018-04-10T01:16:02.558Z,65.36
2018-04-10T01:18:30.057Z,65.65
2018-04-10T01:20:57.536Z,65.86
2018-04-10T01:23:25.022Z,66.25
2018-04-10T01:25:52.474Z,66.60
2018-04-10T01:28:19.997Z,66.99
2018-04-10T01:30:47.453Z,67.12
2018-04-10T01:33:14.942Z,66.92
2018-04-10T01:35:42.436Z,66.68
2018-04-10T01:38:10.005Z,66.37
2018-04-10T01:40:37.489Z,66.46
2018-04-10T01:43:04.944Z,66.60
2018-04-10T01:45:32.413Z,66.65
2018-04-10T01:47:59.896Z,66.99
2018-04-10T01:50:27.368Z,67.11
2018-04-10T01:52:55.061Z,66.99
2018-04-10T01:55:22.569Z,66.64
2018-04-10T01:57:50.058Z,67.42
2018-04-10T02:00:17.546Z,66.64
2018-04-10T02:02:45.052Z,66.77
2018-04-10T02:05:12.583Z,67.19
2018-04-10T02:07:40.064Z,67.01
2018-04-10T02:10:07.548Z,67.12
2018-04-10T02:12:35.022Z,67.21
2018-04-10T02:15:02.489Z,67.46
2018-04-10T02:17:29.957Z,67.68
2018-04-10T02:19:57.425Z,67.28
2018-04-10T02:22:24.916Z,67.34
2018-04-10T02:24:52.413Z,67.23
2018-04-10T02:27:19.898Z,66.95
2018-04-10T02:29:47.367Z,66.69
2018-04-10T02:32:14.875Z,66.63
2018-04-10T02:34:42.379Z,66.33
2018-04-10T02:37:10.034Z,66.40
2018-04-10T02:39:37.577Z,66.36
2018-04-10T02:42:05.056Z,66.46
2018-04-10T02:44:32.517Z,66.52
2018-04-10T02:47:00.001Z,66.61
2018-04-10T02:49:27.497Z,66.79
2018-04-10T02:51:55.161Z,66.72
2018-04-10T02:54:22.653Z,66.82
2018-04-10T02:56:50.114Z,66.72
2018-04-10T02:59:17.572Z,66.79
2018-04-10T03:01:45.097Z,66.85
2018-04-10T03:04:12.597Z,67.12
2018-04-10T03:06:40.103Z,67.25
2018-04-10T03:09:07.846Z,67.42
2018-04-10T03:11:35.335Z,68.00
2018-04-10T03:14:03.059Z,67.78
2018-04-10T03:16:30.510Z,67.67
2018-04-10T03:18:58.156Z,67.38
2018-04-10T03:21:25.767Z,67.34
2018-04-10T03:23:53.235Z,67.32
2018-04-10T03:26:20.700Z,67.31
2018-04-10T03:28:48.153Z,67.12
2018-04-10T03:31:15.637Z,66.92
2018-04-10T03:33:43.099Z,67.12
2018-04-10T03:36:10.616Z,66.79
2018-04-10T03:38:38.183Z,66.98
2018-04-10T03:41:05.650Z,67.05
2018-04-10T03:43:33.414Z,66.82
2018-04-10T03:46:00.877Z,67.00
2018-04-10T03:48:28.375Z,66.97
2018-04-10T03:50:55.886Z,67.05
2018-04-10T03:53:23.390Z,67.15
2018-04-10T03:55:50.910Z,67.31
2018-04-10T03:58:18.416Z,66.96
2018-04-10T04:00:45.928Z,67.37
2018-04-10T04:03:13.423Z,68.11
2018-04-10T04:05:40.936Z,68.67
2018-04-10T04:08:08.474Z,69.14
2018-04-10T04:10:35.986Z,69.69
2018-04-10T04:13:03.472Z,70.19
2018-04-10T04:15:30.986Z,70.58
2018-04-10T04:17:58.551Z,70.87
2018-04-10T04:20:38.958Z,71.08
2018-04-10T04:23:06.422Z,71.44
2018-04-10T04:25:34.761Z,71.79
2018-04-10T04:28:02.300Z,71.88
2018-04-10T04:30:29.769Z,72.38
2018-04-10T04:32:57.432Z,72.40
2018-04-10T04:35:24.902Z,73.62
2018-04-10T04:37:52.389Z,73.26
2018-04-10T04:40:20.139Z,73.39
2018-04-10T04:42:47.633Z,73.54
2018-04-10T04:45:15.169Z,73.74
2018-04-10T04:47:42.656Z,74.00
2018-04-10T04:50:10.188Z,74.31
2018-04-10T04:52:37.669Z,74.29
2018-04-10T04:55:05.148Z,74.16
2018-04-10T04:57:32.687Z,73.61
2018-04-10T05:00:00.249Z,73.66
2018-04-10T05:02:27.776Z,73.21
2018-04-10T05:04:55.255Z,73.92
2018-04-10T05:07:22.748Z,74.25
2018-04-10T05:09:50.251Z,73.46
2018-04-10T05:12:17.786Z,73.32
2018-04-10T05:14:45.283Z,72.85
2018-04-10T05:17:12.767Z,72.30
2018-04-10T05:19:40.299Z,72.27
2018-04-10T05:22:07.889Z,71.58
2018-04-10T05:24:35.363Z,71.68
2018-04-10T05:29:36.724Z,71.44
2018-04-10T05:32:04.227Z,72.22
2018-04-10T05:34:31.714Z,70.74
2018-04-10T05:36:59.242Z,70.06
2018-04-10T05:39:26.824Z,69.93
2018-04-10T05:41:54.322Z,69.46
2018-04-10T05:44:21.831Z,69.00
2018-04-10T05:46:49.329Z,68.70
2018-04-10T05:49:16.845Z,69.31
2018-04-10T05:51:44.440Z,69.35
2018-04-10T05:54:11.944Z,68.72
2018-04-10T05:56:39.429Z,69.26
2018-04-10T05:59:06.932Z,68.98
2018-04-10T06:01:34.434Z,69.05
2018-04-10T06:04:01.967Z,69.51
2018-04-10T06:06:29.450Z,70.17
2018-04-10T06:08:56.976Z,69.29
2018-04-10T06:11:24.585Z,69.16
2018-04-10T06:13:52.086Z,68.16
2018-04-10T06:16:19.591Z,67.96
2018-04-10T06:18:47.090Z,67.29
2018-04-10T06:21:14.607Z,67.18
2018-04-10T06:23:42.112Z,67.27
2018-04-10T06:26:09.703Z,67.01
2018-04-10T06:28:37.213Z,65.95
2018-04-10T06:31:04.704Z,65.17
2018-04-10T06:33:32.185Z,64.45
2018-04-10T06:35:59.760Z,63.55
2018-04-10T06:38:27.242Z,62.96
2018-04-10T06:40:54.762Z,63.22
2018-04-10T06:43:22.239Z,62.43
2018-04-10T06:45:49.732Z,62.32
2018-04-10T06:48:17.253Z,61.63
2018-04-10T06:50:44.803Z,60.52
2018-04-10T06:53:12.279Z,59.78
2018-04-10T06:55:39.770Z,60.02
2018-04-10T06:58:07.300Z,59.79
2018-04-10T07:00:34.806Z,59.23
2018-04-10T07:03:02.296Z,58.95
2018-04-10T07:05:29.935Z,58.25
2018-04-10T07:07:57.448Z,58.01
2018-04-10T07:10:24.967Z,57.52
2018-04-10T07:12:52.446Z,56.81
2018-04-10T07:15:19.936Z,55.52
2018-04-10T07:17:47.655Z,53.96
2018-04-10T07:20:15.152Z,53.99
2018-04-10T07:22:42.665Z,53.73
2018-04-10T07:25:10.202Z,52.61
2018-04-10T07:27:37.728Z,53.21
2018-04-10T07:30:05.225Z,52.37
2018-04-10T07:32:32.761Z,52.08
2018-04-10T07:35:00.316Z,52.43
2018-04-10T07:37:27.793Z,52.30
2018-04-10T07:39:55.317Z,53.68
2018-04-10T07:42:22.837Z,53.78
2018-04-10T07:44:50.503Z,53.87
2018-04-10T07:47:17.995Z,53.38
2018-04-10T07:49:45.496Z,52.87
2018-04-10T07:52:12.979Z,53.61
2018-04-10T07:54:40.550Z,53.07
2018-04-10T07:57:08.025Z,52.58
2018-04-10T07:59:35.523Z,52.32
2018-04-10T08:02:03.074Z,52.48
2018-04-10T08:04:30.562Z,51.60
2018-04-10T08:06:58.055Z,50.95
2018-04-10T08:09:25.548Z,51.89
2018-04-10T08:11:53.067Z,49.72
2018-04-10T08:14:20.552Z,48.03
2018-04-10T08:16:48.045Z,47.94
2018-04-10T08:19:15.532Z,49.90
2018-04-10T08:21:43.022Z,47.93
2018-04-10T08:24:10.501Z,46.87
2018-04-10T08:26:37.973Z,47.08
2018-04-10T08:29:05.600Z,46.82
2018-04-10T08:31:33.148Z,45.66
2018-04-10T08:34:00.694Z,46.49
2018-04-10T08:36:28.293Z,46.58
2018-04-10T08:38:55.801Z,48.40
2018-04-10T08:41:23.294Z,47.99
2018-04-10T08:43:50.998Z,46.61
2018-04-10T08:46:18.486Z,45.81
2018-04-10T08:48:45.989Z,47.88
2018-04-10T08:51:13.496Z,46.34
2018-04-10T08:53:41.029Z,44.75
2018-04-10T08:56:08.522Z,43.46
2018-04-10T08:58:36.002Z,42.36
2018-04-10T09:01:03.507Z,43.55
2018-04-10T09:03:31.017Z,42.81
2018-04-10T09:05:58.533Z,43.16
2018-04-10T09:08:26.052Z,43.81
2018-04-10T09:10:53.559Z,43.94
2018-04-10T09:13:21.052Z,43.07
2018-04-10T09:15:48.550Z,43.89
2018-04-10T09:18:16.089Z,44.35
2018-04-10T09:20:43.583Z,43.54
2018-04-10T09:23:11.147Z,43.30
2018-04-10T09:25:38.757Z,42.44
2018-04-10T09:28:06.324Z,42.12
2018-04-10T09:30:33.847Z,42.31
2018-04-10T09:33:01.462Z,42.38
2018-04-10T09:35:28.976Z,42.37
2018-04-10T09:37:56.471Z,42.27
2018-04-10T09:40:23.987Z,41.98
2018-04-10T09:42:51.553Z,42.07
2018-04-10T09:45:19.091Z,42.75
2018-04-10T09:47:46.623Z,40.95
2018-04-10T09:50:14.192Z,41.68
2018-04-10T09:52:41.656Z,41.13
2018-04-10T09:55:09.281Z,41.02
2018-04-10T09:57:36.788Z,40.20
2018-04-10T10:00:04.308Z,40.39
2018-04-10T10:02:31.823Z,39.19
2018-04-10T10:04:59.325Z,37.84
2018-04-10T10:07:26.830Z,38.32
2018-04-10T10:09:54.314Z,37.84
2018-04-10T10:12:21.782Z,38.86
2018-04-10T10:14:49.439Z,38.20
2018-04-10T10:17:17.014Z,38.67
2018-04-10T10:19:44.504Z,39.35
2018-04-10T10:22:11.999Z,38.67
2018-04-10T10:24:39.485Z,37.95
2018-04-10T10:27:07.120Z,37.42
2018-04-10T10:29:34.732Z,38.28
2018-04-10T10:32:02.332Z,35.53
2018-04-10T10:34:29.853Z,35.93
2018-04-10T10:36:58.588Z,36.00
2018-04-10T10:39:26.090Z,37.66
2018-04-10T10:41:53.600Z,34.88
2018-04-10T10:44:21.072Z,34.21
2018-04-10T10:46:48.627Z,34.79
2018-04-10T10:49:16.159Z,35.86
2018-04-10T10:51:43.644Z,36.57
2018-04-10T10:54:11.140Z,36.21
2018-04-10T10:56:38.785Z,36.71
2018-04-10T10:59:06.252Z,35.46
2018-04-10T11:01:33.761Z,36.05
2018-04-10T11:04:01.307Z,34.83
2018-04-10T11:06:28.811Z,34.08
2018-04-10T11:08:56.347Z,33.89
2018-04-10T11:11:24.052Z,34.42
2018-04-10T11:13:51.601Z,33.99
2018-04-10T11:16:19.100Z,33.49
2018-04-10T11:18:46.603Z,32.96
2018-04-10T11:21:14.117Z,32.17
2018-04-10T11:23:41.602Z,33.46
2018-04-10T11:26:09.092Z,31.92
2018-04-10T11:28:36.642Z,32.17
2018-04-10T11:31:04.178Z,31.50
2018-04-10T11:33:31.691Z,30.95
2018-04-10T11:35:59.226Z,29.79
2018-04-10T11:38:26.719Z,28.94
2018-04-10T11:40:54.220Z,28.07
2018-04-10T11:43:21.713Z,27.09
2018-04-10T11:45:49.218Z,26.15
2018-04-10T11:48:16.711Z,23.80
2018-04-10T11:50:44.202Z,23.98
2018-04-10T11:53:11.724Z,22.67
2018-04-10T11:55:39.214Z,23.84
2018-04-10T11:58:06.683Z,20.56
2018-04-10T12:00:34.240Z,21.19
2018-04-10T12:03:01.768Z,22.00
2018-04-10T12:05:29.262Z,21.30
2018-04-10T12:07:56.780Z,18.39
2018-04-10T12:10:24.351Z,19.51
2018-04-10T12:12:51.884Z,17.10
2018-04-10T12:15:19.445Z,16.48
2018-04-10T12:17:46.951Z,17.35
2018-04-10T12:20:14.446Z,17.23
2018-04-10T12:22:41.940Z,17.85
2018-04-10T12:25:09.426Z,16.19
2018-04-10T12:27:37.022Z,15.69
2018-04-10T12:30:04.541Z,14.84
2018-04-10T12:32:32.133Z,15.79
2018-04-10T12:34:59.659Z,17.83
2018-04-10T12:37:27.122Z,16.93
2018-04-10T12:39:54.688Z,18.27
2018-04-10T12:42:22.193Z,15.82
2018-04-10T12:44:49.697Z,16.17
2018-04-10T12:47:17.188Z,17.46
2018-04-10T12:49:44.691Z,17.43
2018-04-10T12:52:12.165Z,19.82
2018-04-10T12:54:39.664Z,22.63
2018-04-10T12:57:07.282Z,24.40
2018-04-10T12:59:34.762Z,22.55
2018-04-10T13:02:02.251Z,20.83
2018-04-10T13:04:29.752Z,21.61
2018-04-10T13:06:57.251Z,21.22
2018-04-10T13:09:24.750Z,21.34
2018-04-10T13:11:52.237Z,24.10
2018-04-10T13:14:19.967Z,22.33
2018-04-10T13:16:47.479Z,22.32
2018-04-10T13:19:15.030Z,22.38
2018-04-10T13:21:42.591Z,23.00
2018-04-10T13:24:11.307Z,21.70
2018-04-10T13:26:38.845Z,21.35
2018-04-10T13:29:06.293Z,21.92
2018-04-10T13:31:33.788Z,21.21
2018-04-10T13:34:01.324Z,21.81
2018-04-10T13:36:29.001Z,22.40
2018-04-10T13:38:56.498Z,21.83
2018-04-10T13:41:23.981Z,23.17
2018-04-10T13:43:51.567Z,22.36
2018-04-10T13:46:19.153Z,23.45
2018-04-10T13:48:46.643Z,24.95
2018-04-10T13:51:14.118Z,26.06
2018-04-10T13:53:41.620Z,27.24
2018-04-10T13:56:09.230Z,28.33
2018-04-10T13:58:36.733Z,27.22
2018-04-10T14:01:04.284Z,25.26
2018-04-10T14:03:31.844Z,24.90
2018-04-10T14:05:59.345Z,25.65
2018-04-10T14:08:26.903Z,26.33
2018-04-10T14:10:54.412Z,28.46
2018-04-10T14:13:21.913Z,28.75
2018-04-10T14:15:49.422Z,28.66
2018-04-10T14:18:16.942Z,29.99
2018-04-10T14:20:44.451Z,28.06
2018-04-10T14:23:11.970Z,27.82
2018-04-10T14:25:39.458Z,27.45
2018-04-10T14:28:06.952Z,27.90
2018-04-10T14:30:34.471Z,27.29
2018-04-10T14:33:02.044Z,27.92
2018-04-10T14:35:30.085Z,27.11
2018-04-10T14:37:57.579Z,28.10
2018-04-10T14:40:25.117Z,27.77
2018-04-10T14:42:52.641Z,28.69
2018-04-10T14:45:20.130Z,29.52
2018-04-10T14:47:47.634Z,29.07
2018-04-10T14:50:15.247Z,30.39
2018-04-10T14:52:42.728Z,29.76
2018-04-10T14:55:10.220Z,30.09
2018-04-10T14:57:37.760Z,32.28
2018-04-10T15:00:05.230Z,33.16
2018-04-10T15:02:32.744Z,32.86
2018-04-10T15:05:00.308Z,32.76
2018-04-10T15:07:27.809Z,33.70
2018-04-10T15:09:55.297Z,34.85
2018-04-10T15:12:22.887Z,34.86
2018-04-10T15:14:50.447Z,35.85
2018-04-10T15:17:18.017Z,39.36
2018-04-10T15:19:45.508Z,41.51
2018-04-10T15:22:12.986Z,43.00
2018-04-10T15:24:40.533Z,44.00
2018-04-10T15:27:08.028Z,46.00
2018-04-10T15:29:35.520Z,46.36
2018-04-10T15:32:03.033Z,46.71
2018-04-10T15:34:30.697Z,47.14
2018-04-10T15:36:58.335Z,48.07
2018-04-10T15:39:25.983Z,48.41
2018-04-10T15:41:53.634Z,49.33
2018-04-10T15:44:21.453Z,50.44
2018-04-10T15:46:48.990Z,50.54
2018-04-10T15:49:16.549Z,51.95
2018-04-10T15:51:44.027Z,52.16
2018-04-10T15:54:11.531Z,52.81
2018-04-10T15:56:39.082Z,52.64
2018-04-10T15:59:07.115Z,52.72
2018-04-10T16:01:34.608Z,52.12
2018-04-10T16:04:02.241Z,51.52
2018-04-10T16:06:29.935Z,51.28
2018-04-10T16:08:57.469Z,50.47
2018-04-10T16:11:24.948Z,51.02
2018-04-10T16:13:52.668Z,51.88
2018-04-10T16:16:20.231Z,52.08
2018-04-10T16:18:48.148Z,52.91
2018-04-10T16:21:15.804Z,53.56
2018-04-10T16:23:43.301Z,54.13
2018-04-10T16:26:10.831Z,54.79
2018-04-10T16:28:38.325Z,54.88
2018-04-10T16:31:05.847Z,55.10
2018-04-10T16:33:33.354Z,56.14
2018-04-10T16:36:00.862Z,56.62
2018-04-10T16:38:28.346Z,56.87
2018-04-10T16:40:55.865Z,56.91
2018-04-10T16:43:23.340Z,57.70
2018-04-10T16:45:50.883Z,57.23
2018-04-10T16:48:18.407Z,56.67
2018-04-10T16:50:45.895Z,56.51
2018-04-10T16:53:13.421Z,56.71
2018-04-10T16:55:42.009Z,57.45
2018-04-10T16:58:09.533Z,57.82
2018-04-10T17:00:37.048Z,58.90
2018-04-10T17:03:04.537Z,60.78
2018-04-10T17:05:32.045Z,62.32
2018-04-10T17:07:59.559Z,66.07
2018-04-10T17:10:27.176Z,72.08
2018-04-10T17:12:54.660Z,79.16
2018-04-10T17:15:22.183Z,80.30
2018-04-10T17:17:49.719Z,83.97
2018-04-10T17:20:17.308Z,88.32
2018-04-10T17:22:44.817Z,89.08
2018-04-10T17:25:12.322Z,88.69
2018-04-10T17:27:39.805Z,89.40
2018-04-10T17:30:07.355Z,87.78
2018-04-10T17:32:34.846Z,88.23
2018-04-10T17:35:02.417Z,88.43
2018-04-10T17:37:29.920Z,89.26
2018-04-10T17:39:57.521Z,89.20
2018-04-10T17:42:25.008Z,89.66
2018-04-10T17:44:52.595Z,90.23
2018-04-10T17:47:20.102Z,89.66
2018-04-10T17:49:47.913Z,90.27
2018-04-10T17:52:15.441Z,89.17
2018-04-10T17:54:44.851Z,89.78
2018-04-10T17:57:12.764Z,89.89
2018-04-10T17:59:40.325Z,90.32
2018-04-10T18:02:07.880Z,90.61
2018-04-10T18:04:35.359Z,88.73
2018-04-10T18:07:02.855Z,88.51
2018-04-10T18:09:30.405Z,88.66
2018-04-10T18:11:57.981Z,88.98
2018-04-10T18:14:25.483Z,87.71
2018-04-10T18:16:53.018Z,88.65
2018-04-10T18:19:20.580Z,88.33
2018-04-10T18:21:53.322Z,88.41
2018-04-10T18:24:20.850Z,88.59
2018-04-10T18:26:48.763Z,88.60
2018-04-10T18:29:19.608Z,89.12
2018-04-10T18:31:47.159Z,88.37
2018-04-10T18:34:15.697Z,87.93
2018-04-10T18:36:43.723Z,87.30
2018-04-10T18:39:12.566Z,87.11
2018-04-10T18:41:40.080Z,87.20
2018-04-10T18:44:07.602Z,87.77
2018-04-10T18:46:35.160Z,87.18
2018-04-10T18:49:02.735Z,87.48
2018-04-10T18:51:30.352Z,86.84
2018-04-10T18:53:57.933Z,87.77
2018-04-10T18:56:25.434Z,87.90
2018-04-10T18:58:52.943Z,86.54
2018-04-10T19:01:20.421Z,87.10
2018-04-10T19:03:48.009Z,85.98
2018-04-10T19:06:15.789Z,87.65
2018-04-10T19:08:43.327Z,85.37
2018-04-10T19:11:10.929Z,88.49
2018-04-10T19:13:40.538Z,86.13
2018-04-10T19:16:08.150Z,85.12
2018-04-10T19:18:35.973Z,85.63
2018-04-10T19:21:03.497Z,85.85
2018-04-10T19:23:31.022Z,83.27
2018-04-10T19:25:58.844Z,85.25
2018-04-10T19:28:26.516Z,85.60
2018-04-10T19:30:55.080Z,84.47
2018-04-10T19:33:22.789Z,85.07
2018-04-10T19:35:50.351Z,86.32
2018-04-10T19:38:17.844Z,86.25
2018-04-10T19:40:45.359Z,84.51
2018-04-10T19:43:15.759Z,85.15
2018-04-10T19:45:43.429Z,84.18
2018-04-10T19:48:10.900Z,84.74
2018-04-10T19:50:38.436Z,84.72
2018-04-10T19:53:06.147Z,84.74
2018-04-10T19:55:33.793Z,85.23
2018-04-10T19:58:01.341Z,85.01
2018-04-10T20:00:28.912Z,84.80
2018-04-10T20:02:57.553Z,84.95
2018-04-10T20:05:25.055Z,84.83
2018-04-10T20:07:52.637Z,85.80
2018-04-10T20:10:20.110Z,85.84
2018-04-10T20:12:47.635Z,87.05
2018-04-10T20:15:15.384Z,86.76
2018-04-10T20:17:42.982Z,86.24
2018-04-10T20:20:10.792Z,85.80
2018-04-10T20:22:38.452Z,86.73
2018-04-10T20:25:05.959Z,85.59
2018-04-10T20:27:33.594Z,85.21
2018-04-10T20:30:01.167Z,86.04
2018-04-10T20:32:28.713Z,86.96
2018-04-10T20:34:56.246Z,85.51
2018-04-10T20:37:23.787Z,85.96
2018-04-10T20:39:51.435Z,86.07
2018-04-10T20:42:18.936Z,86.02
2018-04-10T20:44:46.556Z,85.52
2018-04-10T20:47:14.072Z,85.72
2018-04-10T20:49:41.609Z,85.46
2018-04-10T20:52:09.319Z,86.37
2018-04-10T20:54:36.878Z,86.91
2018-04-10T20:57:04.521Z,86.87
2018-04-10T20:59:32.081Z,86.18
2018-04-10T21:01:59.596Z,85.58
2018-04-10T21:04:27.094Z,85.65
2018-04-10T21:06:54.569Z,85.05
2018-04-10T21:09:22.112Z,86.28
2018-04-10T21:11:49.891Z,87.19
2018-04-10T21:14:17.682Z,87.21
2018-04-10T21:16:45.233Z,87.05
2018-04-10T21:19:12.751Z,86.37
2018-04-10T21:21:40.387Z,86.89
2018-04-10T21:24:08.084Z,86.12
2018-04-10T21:26:35.707Z,85.75
2018-04-10T21:29:03.211Z,86.42
2018-04-10T21:31:30.838Z,86.73
2018-04-10T21:33:58.541Z,86.85
2018-04-10T21:36:26.168Z,86.65
2018-04-10T21:38:53.698Z,86.99
2018-04-10T21:41:21.209Z,86.11
2018-04-10T21:43:48.754Z,86.35
2018-04-10T21:46:17.468Z,86.28
2018-04-10T21:48:45.102Z,86.87
2018-04-10T21:51:14.355Z,87.08
2018-04-10T21:53:43.271Z,87.29
2018-04-10T21:56:10.817Z,86.88
2018-04-10T21:58:38.426Z,86.29
2018-04-10T22:01:05.961Z,86.47
2018-04-10T22:03:33.728Z,86.45
2018-04-10T22:06:02.619Z,86.78
2018-04-10T22:08:30.258Z,86.71
2018-04-10T22:10:58.661Z,86.82
2018-04-10T22:13:26.128Z,86.61
2018-04-10T22:15:53.647Z,86.80
2018-04-10T22:18:21.134Z,86.61
2018-04-10T22:20:48.765Z,86.63
2018-04-10T22:23:16.829Z,86.97
2018-04-10T22:25:44.308Z,87.17
2018-04-10T22:28:11.798Z,87.03
2018-04-10T22:30:39.278Z,87.32
2018-04-10T22:33:06.734Z,87.57
2018-04-10T22:35:34.335Z,87.63
2018-04-10T22:38:01.996Z,87.88
2018-04-10T22:40:29.483Z,87.48
2018-04-10T22:42:56.960Z,87.28
2018-04-10T22:45:24.432Z,87.15
2018-04-10T22:47:51.928Z,86.62
2018-04-10T22:50:23.558Z,86.10
2018-04-10T22:52:54.125Z,85.70
2018-04-10T22:55:23.421Z,86.38
2018-04-10T22:57:52.217Z,86.64
2018-04-10T23:03:26.172Z,87.00
2018-04-10T23:05:53.787Z,86.89
2018-04-10T23:08:21.597Z,86.92
2018-04-10T23:10:50.104Z,87.14
2018-04-10T23:13:18.875Z,86.98
2018-04-10T23:15:48.516Z,86.69
2018-04-10T23:18:18.773Z,87.17
2018-04-10T23:20:47.136Z,86.89
2018-04-10T23:23:14.730Z,87.26
2018-04-10T23:25:42.219Z,87.51
2018-04-10T23:28:09.699Z,87.52
2018-04-10T23:30:37.183Z,87.37
2018-04-10T23:33:04.675Z,87.22
2018-04-10T23:35:32.180Z,86.93
2018-04-10T23:37:59.657Z,87.19
2018-04-10T23:40:27.289Z,87.42
2018-04-10T23:42:54.765Z,88.24
2018-04-10T23:45:22.239Z,88.31
2018-04-10T23:47:49.759Z,88.21
2018-04-10T23:50:17.462Z,88.18
2018-04-10T23:52:44.953Z,88.61
2018-04-10T23:55:12.419Z,88.36
2018-04-10T23:57:39.901Z,88.86
